sensor_id;sensor_type;location;lat;lon;timestamp;temperature;humidity
47546;DHT22;50104;52.002;4.688;2022-08-02T00:00:25;19.20;65.40
47546;DHT22;50104;52.002;4.688;2022-08-02T00:05:26;19.10;65.60
47546;DHT22;50104;52.002;4.688;2022-08-02T00:16:12;19.10;66.10
47546;DHT22;50104;52.002;4.688;2022-08-02T00:21:13;19.10;65.90
47546;DHT22;50104;52.002;4.688;2022-08-02T00:26:15;19.10;65.90
47546;DHT22;50104;52.002;4.688;2022-08-02T00:31:16;19.00;65.70
47546;DHT22;50104;52.002;4.688;2022-08-02T00:36:16;18.90;65.70
47546;DHT22;50104;52.002;4.688;2022-08-02T00:41:19;18.90;65.70
47546;DHT22;50104;52.002;4.688;2022-08-02T00:46:20;18.80;65.50
47546;DHT22;50104;52.002;4.688;2022-08-02T00:51:21;18.80;65.50
47546;DHT22;50104;52.002;4.688;2022-08-02T00:56:22;18.70;65.70
47546;DHT22;50104;52.002;4.688;2022-08-02T01:01:23;18.60;65.70
47546;DHT22;50104;52.002;4.688;2022-08-02T01:06:39;18.60;65.80
47546;DHT22;50104;52.002;4.688;2022-08-02T01:11:41;18.50;65.80
47546;DHT22;50104;52.002;4.688;2022-08-02T01:16:47;18.50;66.00
47546;DHT22;50104;52.002;4.688;2022-08-02T01:32:49;18.30;65.90
47546;DHT22;50104;52.002;4.688;2022-08-02T01:37:57;18.20;65.90
47546;DHT22;50104;52.002;4.688;2022-08-02T01:42:59;18.20;66.00
47546;DHT22;50104;52.002;4.688;2022-08-02T01:48:01;18.20;66.10
47546;DHT22;50104;52.002;4.688;2022-08-02T01:53:08;18.10;66.20
47546;DHT22;50104;52.002;4.688;2022-08-02T01:58:10;18.10;66.40
47546;DHT22;50104;52.002;4.688;2022-08-02T02:03:19;18.00;66.40
47546;DHT22;50104;52.002;4.688;2022-08-02T02:08:30;17.90;66.50
47546;DHT22;50104;52.002;4.688;2022-08-02T02:13:35;17.90;66.60
47546;DHT22;50104;52.002;4.688;2022-08-02T02:18:39;17.80;66.60
47546;DHT22;50104;52.002;4.688;2022-08-02T02:23:43;17.80;66.90
47546;DHT22;50104;52.002;4.688;2022-08-02T02:28:46;17.70;67.00
47546;DHT22;50104;52.002;4.688;2022-08-02T02:33:57;17.60;67.10
47546;DHT22;50104;52.002;4.688;2022-08-02T02:39:03;17.60;67.30
47546;DHT22;50104;52.002;4.688;2022-08-02T02:44:09;17.50;67.40
47546;DHT22;50104;52.002;4.688;2022-08-02T02:49:13;17.50;67.40
47546;DHT22;50104;52.002;4.688;2022-08-02T02:54:17;17.40;67.30
47546;DHT22;50104;52.002;4.688;2022-08-02T02:59:18;17.30;67.40
47546;DHT22;50104;52.002;4.688;2022-08-02T03:04:20;17.20;67.60
47546;DHT22;50104;52.002;4.688;2022-08-02T03:09:21;17.20;67.70
47546;DHT22;50104;52.002;4.688;2022-08-02T03:14:22;17.20;67.70
47546;DHT22;50104;52.002;4.688;2022-08-02T03:19:23;17.10;67.70
47546;DHT22;50104;52.002;4.688;2022-08-02T03:24:24;17.10;68.00
47546;DHT22;50104;52.002;4.688;2022-08-02T03:29:25;17.00;67.90
47546;DHT22;50104;52.002;4.688;2022-08-02T03:34:26;17.00;68.00
47546;DHT22;50104;52.002;4.688;2022-08-02T03:39:27;17.00;68.00
47546;DHT22;50104;52.002;4.688;2022-08-02T03:44:29;16.90;68.10
47546;DHT22;50104;52.002;4.688;2022-08-02T03:49:31;16.90;68.10
47546;DHT22;50104;52.002;4.688;2022-08-02T03:54:32;16.90;68.20
47546;DHT22;50104;52.002;4.688;2022-08-02T03:59:43;16.80;68.20
47546;DHT22;50104;52.002;4.688;2022-08-02T04:04:45;16.80;68.40
47546;DHT22;50104;52.002;4.688;2022-08-02T04:09:46;16.70;68.30
47546;DHT22;50104;52.002;4.688;2022-08-02T04:14:47;16.70;68.50
47546;DHT22;50104;52.002;4.688;2022-08-02T04:19:50;16.70;68.60
47546;DHT22;50104;52.002;4.688;2022-08-02T04:24:57;16.60;68.70
47546;DHT22;50104;52.002;4.688;2022-08-02T04:30:00;16.60;68.90
47546;DHT22;50104;52.002;4.688;2022-08-02T04:35:01;16.60;69.10
47546;DHT22;50104;52.002;4.688;2022-08-02T04:40:07;16.60;69.30
47546;DHT22;50104;52.002;4.688;2022-08-02T04:45:10;16.50;69.30
47546;DHT22;50104;52.002;4.688;2022-08-02T04:50:11;16.50;69.40
47546;DHT22;50104;52.002;4.688;2022-08-02T04:55:12;16.50;69.40
47546;DHT22;50104;52.002;4.688;2022-08-02T05:00:13;16.40;69.50
47546;DHT22;50104;52.002;4.688;2022-08-02T05:05:23;16.40;69.70
47546;DHT22;50104;52.002;4.688;2022-08-02T05:10:25;16.40;69.90
47546;DHT22;50104;52.002;4.688;2022-08-02T05:15:26;16.40;70.10
47546;DHT22;50104;52.002;4.688;2022-08-02T05:20:27;16.50;70.40
47546;DHT22;50104;52.002;4.688;2022-08-02T05:25:27;16.50;70.50
47546;DHT22;50104;52.002;4.688;2022-08-02T05:30:28;16.50;70.60
47546;DHT22;50104;52.002;4.688;2022-08-02T05:35:29;16.50;70.60
47546;DHT22;50104;52.002;4.688;2022-08-02T05:40:30;16.50;70.80
47546;DHT22;50104;52.002;4.688;2022-08-02T05:45:33;16.60;70.80
47546;DHT22;50104;52.002;4.688;2022-08-02T05:50:38;16.60;70.90
47546;DHT22;50104;52.002;4.688;2022-08-02T05:55:44;16.70;70.80
47546;DHT22;50104;52.002;4.688;2022-08-02T06:00:48;16.70;70.90
47546;DHT22;50104;52.002;4.688;2022-08-02T06:11:38;16.80;71.40
47546;DHT22;50104;52.002;4.688;2022-08-02T06:16:43;16.90;71.70
47546;DHT22;50104;52.002;4.688;2022-08-02T06:21:44;17.00;71.80
47546;DHT22;50104;52.002;4.688;2022-08-02T06:26:48;17.10;72.10
47546;DHT22;50104;52.002;4.688;2022-08-02T06:31:52;17.20;72.60
47546;DHT22;50104;52.002;4.688;2022-08-02T06:42:36;17.50;74.20
47546;DHT22;50104;52.002;4.688;2022-08-02T06:48:00;17.60;74.80
47546;DHT22;50104;52.002;4.688;2022-08-02T06:53:01;17.80;76.10
47546;DHT22;50104;52.002;4.688;2022-08-02T06:58:02;18.10;77.00
47546;DHT22;50104;52.002;4.688;2022-08-02T07:03:03;18.50;76.20
47546;DHT22;50104;52.002;4.688;2022-08-02T07:08:05;18.90;75.90
47546;DHT22;50104;52.002;4.688;2022-08-02T07:13:06;19.20;76.00
47546;DHT22;50104;52.002;4.688;2022-08-02T07:18:06;19.70;76.40
47546;DHT22;50104;52.002;4.688;2022-08-02T07:23:13;20.10;75.40
47546;DHT22;50104;52.002;4.688;2022-08-02T07:28:14;20.60;74.60
47546;DHT22;50104;52.002;4.688;2022-08-02T07:33:16;21.00;74.00
47546;DHT22;50104;52.002;4.688;2022-08-02T07:38:16;21.40;72.40
47546;DHT22;50104;52.002;4.688;2022-08-02T07:43:17;21.80;72.00
47546;DHT22;50104;52.002;4.688;2022-08-02T07:48:18;22.20;71.00
47546;DHT22;50104;52.002;4.688;2022-08-02T07:53:19;22.50;69.50
47546;DHT22;50104;52.002;4.688;2022-08-02T07:58:20;22.70;69.10
47546;DHT22;50104;52.002;4.688;2022-08-02T08:03:21;22.90;69.10
47546;DHT22;50104;52.002;4.688;2022-08-02T08:08:22;23.10;69.10
47546;DHT22;50104;52.002;4.688;2022-08-02T08:13:23;23.30;68.90
47546;DHT22;50104;52.002;4.688;2022-08-02T08:18:24;23.50;68.40
47546;DHT22;50104;52.002;4.688;2022-08-02T08:23:24;23.70;68.70
47546;DHT22;50104;52.002;4.688;2022-08-02T08:28:25;23.80;68.70
47546;DHT22;50104;52.002;4.688;2022-08-02T08:33:26;23.90;69.20
47546;DHT22;50104;52.002;4.688;2022-08-02T08:38:27;24.10;69.20
47546;DHT22;50104;52.002;4.688;2022-08-02T08:43:28;24.20;68.90
47546;DHT22;50104;52.002;4.688;2022-08-02T08:48:30;24.20;68.80
47546;DHT22;50104;52.002;4.688;2022-08-02T08:53:38;24.30;68.90
47546;DHT22;50104;52.002;4.688;2022-08-02T08:58:42;24.50;69.20
47546;DHT22;50104;52.002;4.688;2022-08-02T09:03:44;24.70;69.00
47546;DHT22;50104;52.002;4.688;2022-08-02T09:08:45;24.90;68.50
47546;DHT22;50104;52.002;4.688;2022-08-02T09:14:00;25.10;67.20
47546;DHT22;50104;52.002;4.688;2022-08-02T09:19:25;25.30;66.40
47546;DHT22;50104;52.002;4.688;2022-08-02T09:24:26;25.50;65.90
47546;DHT22;50104;52.002;4.688;2022-08-02T09:29:27;25.60;65.30
47546;DHT22;50104;52.002;4.688;2022-08-02T09:34:50;25.80;64.70
47546;DHT22;50104;52.002;4.688;2022-08-02T09:39:52;25.90;63.90
47546;DHT22;50104;52.002;4.688;2022-08-02T09:44:58;26.00;63.40
47546;DHT22;50104;52.002;4.688;2022-08-02T09:49:59;26.10;63.10
47546;DHT22;50104;52.002;4.688;2022-08-02T09:55:04;26.20;62.50
47546;DHT22;50104;52.002;4.688;2022-08-02T10:00:08;26.40;61.80
47546;DHT22;50104;52.002;4.688;2022-08-02T10:05:12;26.50;60.90
47546;DHT22;50104;52.002;4.688;2022-08-02T10:10:13;26.50;60.70
47546;DHT22;50104;52.002;4.688;2022-08-02T10:15:15;26.60;60.90
47546;DHT22;50104;52.002;4.688;2022-08-02T10:20:16;26.70;60.80
47546;DHT22;50104;52.002;4.688;2022-08-02T10:25:18;26.80;59.80
47546;DHT22;50104;52.002;4.688;2022-08-02T10:30:22;26.90;59.30
47546;DHT22;50104;52.002;4.688;2022-08-02T10:35:24;27.10;59.20
47546;DHT22;50104;52.002;4.688;2022-08-02T10:40:41;27.30;59.10
47546;DHT22;50104;52.002;4.688;2022-08-02T10:45:45;27.50;57.60
47546;DHT22;50104;52.002;4.688;2022-08-02T10:55:47;27.90;57.40
47546;DHT22;50104;52.002;4.688;2022-08-02T11:00:49;28.10;57.00
47546;DHT22;50104;52.002;4.688;2022-08-02T11:06:05;28.30;56.70
47546;DHT22;50104;52.002;4.688;2022-08-02T11:16:08;28.70;55.30
47546;DHT22;50104;52.002;4.688;2022-08-02T11:21:25;28.90;55.10
47546;DHT22;50104;52.002;4.688;2022-08-02T11:31:29;29.20;54.70
47546;DHT22;50104;52.002;4.688;2022-08-02T11:36:45;29.40;54.90
47546;DHT22;50104;52.002;4.688;2022-08-02T11:41:51;29.60;54.70
47546;DHT22;50104;52.002;4.688;2022-08-02T11:46:59;29.80;54.30
47546;DHT22;50104;52.002;4.688;2022-08-02T11:52:06;30.00;53.90
47546;DHT22;50104;52.002;4.688;2022-08-02T12:02:16;30.30;52.20
47546;DHT22;50104;52.002;4.688;2022-08-02T12:07:17;30.40;51.60
47546;DHT22;50104;52.002;4.688;2022-08-02T12:12:18;30.50;50.00
47546;DHT22;50104;52.002;4.688;2022-08-02T12:17:26;30.60;50.00
47546;DHT22;50104;52.002;4.688;2022-08-02T12:22:45;30.70;49.40
47546;DHT22;50104;52.002;4.688;2022-08-02T12:27:47;30.70;49.40
47546;DHT22;50104;52.002;4.688;2022-08-02T12:32:48;30.80;49.60
47546;DHT22;50104;52.002;4.688;2022-08-02T12:37:49;30.90;49.90
47546;DHT22;50104;52.002;4.688;2022-08-02T12:42:53;31.10;49.00
47546;DHT22;50104;52.002;4.688;2022-08-02T12:47:59;31.20;48.50
47546;DHT22;50104;52.002;4.688;2022-08-02T12:53:14;31.30;48.60
47546;DHT22;50104;52.002;4.688;2022-08-02T12:58:18;31.40;48.30
47546;DHT22;50104;52.002;4.688;2022-08-02T13:03:27;31.60;48.80
47546;DHT22;50104;52.002;4.688;2022-08-02T13:08:28;31.70;49.20
47546;DHT22;50104;52.002;4.688;2022-08-02T13:13:29;31.80;49.50
47546;DHT22;50104;52.002;4.688;2022-08-02T13:18:30;31.90;49.40
47546;DHT22;50104;52.002;4.688;2022-08-02T13:23:31;32.00;48.90
47546;DHT22;50104;52.002;4.688;2022-08-02T13:28:36;32.10;49.10
47546;DHT22;50104;52.002;4.688;2022-08-02T13:33:41;32.20;49.10
47546;DHT22;50104;52.002;4.688;2022-08-02T13:38:43;32.30;49.40
47546;DHT22;50104;52.002;4.688;2022-08-02T13:43:44;32.40;49.60
47546;DHT22;50104;52.002;4.688;2022-08-02T13:48:45;32.40;49.60
47546;DHT22;50104;52.002;4.688;2022-08-02T13:53:46;32.50;49.60
47546;DHT22;50104;52.002;4.688;2022-08-02T13:58:47;32.50;49.90
47546;DHT22;50104;52.002;4.688;2022-08-02T14:03:47;32.60;49.90
47546;DHT22;50104;52.002;4.688;2022-08-02T14:08:48;32.60;49.80
47546;DHT22;50104;52.002;4.688;2022-08-02T14:13:49;32.60;50.20
47546;DHT22;50104;52.002;4.688;2022-08-02T14:18:50;32.70;50.30
47546;DHT22;50104;52.002;4.688;2022-08-02T14:23:51;32.80;50.00
47546;DHT22;50104;52.002;4.688;2022-08-02T14:28:51;32.80;50.30
47546;DHT22;50104;52.002;4.688;2022-08-02T14:33:52;33.00;50.00
47546;DHT22;50104;52.002;4.688;2022-08-02T14:38:53;33.10;49.90
47546;DHT22;50104;52.002;4.688;2022-08-02T14:43:55;33.10;50.30
47546;DHT22;50104;52.002;4.688;2022-08-02T14:49:04;33.10;49.90
47546;DHT22;50104;52.002;4.688;2022-08-02T14:54:08;33.10;50.10
47546;DHT22;50104;52.002;4.688;2022-08-02T14:59:10;33.00;50.30
47546;DHT22;50104;52.002;4.688;2022-08-02T15:04:10;33.00;50.90
47546;DHT22;50104;52.002;4.688;2022-08-02T15:09:11;33.00;50.80
47546;DHT22;50104;52.002;4.688;2022-08-02T15:14:18;33.00;51.10
47546;DHT22;50104;52.002;4.688;2022-08-02T15:19:20;33.10;51.60
47546;DHT22;50104;52.002;4.688;2022-08-02T15:24:20;33.10;51.70
47546;DHT22;50104;52.002;4.688;2022-08-02T15:29:21;33.10;51.50
47546;DHT22;50104;52.002;4.688;2022-08-02T15:34:22;33.20;51.20
47546;DHT22;50104;52.002;4.688;2022-08-02T15:39:23;33.20;51.20
47546;DHT22;50104;52.002;4.688;2022-08-02T15:44:24;33.20;51.40
47546;DHT22;50104;52.002;4.688;2022-08-02T15:49:25;33.20;51.20
47546;DHT22;50104;52.002;4.688;2022-08-02T16:00:11;33.10;51.40
47546;DHT22;50104;52.002;4.688;2022-08-02T16:05:12;33.00;51.70
47546;DHT22;50104;52.002;4.688;2022-08-02T16:10:15;32.80;52.40
47546;DHT22;50104;52.002;4.688;2022-08-02T16:15:15;32.70;51.90
47546;DHT22;50104;52.002;4.688;2022-08-02T16:20:16;32.60;52.60
47546;DHT22;50104;52.002;4.688;2022-08-02T16:25:17;32.50;52.90
47546;DHT22;50104;52.002;4.688;2022-08-02T16:30:18;32.50;52.90
47546;DHT22;50104;52.002;4.688;2022-08-02T16:35:18;32.40;53.40
47546;DHT22;50104;52.002;4.688;2022-08-02T16:40:20;32.40;54.80
47546;DHT22;50104;52.002;4.688;2022-08-02T16:45:21;32.40;55.10
47546;DHT22;50104;52.002;4.688;2022-08-02T16:50:22;32.30;54.60
47546;DHT22;50104;52.002;4.688;2022-08-02T16:55:23;32.30;54.70
47546;DHT22;50104;52.002;4.688;2022-08-02T17:00:23;32.20;54.00
47546;DHT22;50104;52.002;4.688;2022-08-02T17:05:24;32.10;54.50
47546;DHT22;50104;52.002;4.688;2022-08-02T17:10:26;32.00;55.20
47546;DHT22;50104;52.002;4.688;2022-08-02T17:15:28;31.90;55.00
47546;DHT22;50104;52.002;4.688;2022-08-02T17:20:29;31.80;55.10
47546;DHT22;50104;52.002;4.688;2022-08-02T17:25:30;31.70;55.50
47546;DHT22;50104;52.002;4.688;2022-08-02T17:30:31;31.70;55.10
47546;DHT22;50104;52.002;4.688;2022-08-02T17:35:32;31.50;55.00
47546;DHT22;50104;52.002;4.688;2022-08-02T17:40:33;31.40;55.60
47546;DHT22;50104;52.002;4.688;2022-08-02T17:45:33;31.20;55.40
47546;DHT22;50104;52.002;4.688;2022-08-02T17:50:34;31.10;55.70
47546;DHT22;50104;52.002;4.688;2022-08-02T17:55:35;31.00;56.20
47546;DHT22;50104;52.002;4.688;2022-08-02T18:00:37;30.90;56.20
47546;DHT22;50104;52.002;4.688;2022-08-02T18:05:37;30.80;56.30
47546;DHT22;50104;52.002;4.688;2022-08-02T18:10:38;30.70;56.20
47546;DHT22;50104;52.002;4.688;2022-08-02T18:15:39;30.60;56.40
47546;DHT22;50104;52.002;4.688;2022-08-02T18:20:40;30.40;56.60
47546;DHT22;50104;52.002;4.688;2022-08-02T18:25:41;30.30;56.50
47546;DHT22;50104;52.002;4.688;2022-08-02T18:30:42;30.10;56.80
47546;DHT22;50104;52.002;4.688;2022-08-02T18:35:43;29.80;57.20
47546;DHT22;50104;52.002;4.688;2022-08-02T18:40:44;29.60;57.50
47546;DHT22;50104;52.002;4.688;2022-08-02T18:45:45;29.50;57.90
47546;DHT22;50104;52.002;4.688;2022-08-02T18:50:45;29.20;58.20
47546;DHT22;50104;52.002;4.688;2022-08-02T18:55:46;29.00;58.90
47546;DHT22;50104;52.002;4.688;2022-08-02T19:00:48;28.80;59.20
47546;DHT22;50104;52.002;4.688;2022-08-02T19:05:49;28.60;59.50
47546;DHT22;50104;52.002;4.688;2022-08-02T19:10:50;28.40;59.90
47546;DHT22;50104;52.002;4.688;2022-08-02T19:15:52;28.20;60.10
47546;DHT22;50104;52.002;4.688;2022-08-02T19:20:53;28.00;60.60
47546;DHT22;50104;52.002;4.688;2022-08-02T19:25:55;27.80;60.80
47546;DHT22;50104;52.002;4.688;2022-08-02T19:30:56;27.60;61.20
47546;DHT22;50104;52.002;4.688;2022-08-02T19:35:57;27.40;61.40
47546;DHT22;50104;52.002;4.688;2022-08-02T19:40:58;27.30;61.70
47546;DHT22;50104;52.002;4.688;2022-08-02T19:45:59;27.10;62.10
47546;DHT22;50104;52.002;4.688;2022-08-02T19:50:59;26.90;62.30
47546;DHT22;50104;52.002;4.688;2022-08-02T19:56:00;26.80;62.30
47546;DHT22;50104;52.002;4.688;2022-08-02T20:01:02;26.60;62.40
47546;DHT22;50104;52.002;4.688;2022-08-02T20:06:04;26.50;62.80
47546;DHT22;50104;52.002;4.688;2022-08-02T20:11:06;26.30;63.20
47546;DHT22;50104;52.002;4.688;2022-08-02T20:16:07;26.20;63.60
47546;DHT22;50104;52.002;4.688;2022-08-02T20:21:07;26.10;64.00
47546;DHT22;50104;52.002;4.688;2022-08-02T20:26:08;25.90;64.30
47546;DHT22;50104;52.002;4.688;2022-08-02T20:31:09;25.80;64.60
47546;DHT22;50104;52.002;4.688;2022-08-02T20:36:10;25.70;64.80
47546;DHT22;50104;52.002;4.688;2022-08-02T20:41:11;25.50;65.00
47546;DHT22;50104;52.002;4.688;2022-08-02T20:46:12;25.40;65.00
47546;DHT22;50104;52.002;4.688;2022-08-02T20:51:16;25.30;65.40
47546;DHT22;50104;52.002;4.688;2022-08-02T20:56:17;25.20;66.10
47546;DHT22;50104;52.002;4.688;2022-08-02T21:01:21;25.10;66.40
47546;DHT22;50104;52.002;4.688;2022-08-02T21:06:25;25.00;67.00
47546;DHT22;50104;52.002;4.688;2022-08-02T21:11:26;24.90;67.20
47546;DHT22;50104;52.002;4.688;2022-08-02T21:16:27;24.80;67.50
47546;DHT22;50104;52.002;4.688;2022-08-02T21:21:28;24.70;67.50
47546;DHT22;50104;52.002;4.688;2022-08-02T21:26:29;24.60;67.80
47546;DHT22;50104;52.002;4.688;2022-08-02T21:31:31;24.50;68.00
47546;DHT22;50104;52.002;4.688;2022-08-02T21:36:32;24.40;68.10
47546;DHT22;50104;52.002;4.688;2022-08-02T21:41:34;24.40;68.40
47546;DHT22;50104;52.002;4.688;2022-08-02T21:46:39;24.30;68.60
47546;DHT22;50104;52.002;4.688;2022-08-02T21:51:40;24.20;68.40
47546;DHT22;50104;52.002;4.688;2022-08-02T21:56:41;24.10;68.90
47546;DHT22;50104;52.002;4.688;2022-08-02T22:01:42;24.00;69.30
47546;DHT22;50104;52.002;4.688;2022-08-02T22:06:42;24.00;69.50
47546;DHT22;50104;52.002;4.688;2022-08-02T22:11:43;23.90;69.20
47546;DHT22;50104;52.002;4.688;2022-08-02T22:16:44;23.80;69.10
47546;DHT22;50104;52.002;4.688;2022-08-02T22:21:45;23.70;69.30
47546;DHT22;50104;52.002;4.688;2022-08-02T22:26:46;23.70;69.30
47546;DHT22;50104;52.002;4.688;2022-08-02T22:31:47;23.60;70.20
47546;DHT22;50104;52.002;4.688;2022-08-02T22:36:48;23.50;70.60
47546;DHT22;50104;52.002;4.688;2022-08-02T22:41:49;23.50;70.80
47546;DHT22;50104;52.002;4.688;2022-08-02T22:46:49;23.40;70.90
47546;DHT22;50104;52.002;4.688;2022-08-02T22:51:50;23.30;71.30
47546;DHT22;50104;52.002;4.688;2022-08-02T22:56:51;23.30;71.30
47546;DHT22;50104;52.002;4.688;2022-08-02T23:01:52;23.20;71.20
47546;DHT22;50104;52.002;4.688;2022-08-02T23:06:52;23.20;71.30
47546;DHT22;50104;52.002;4.688;2022-08-02T23:11:53;23.10;71.60
47546;DHT22;50104;52.002;4.688;2022-08-02T23:16:54;23.10;71.70
47546;DHT22;50104;52.002;4.688;2022-08-02T23:22:13;23.00;72.00
47546;DHT22;50104;52.002;4.688;2022-08-02T23:27:14;23.00;72.20
47546;DHT22;50104;52.002;4.688;2022-08-02T23:32:15;23.00;72.30
47546;DHT22;50104;52.002;4.688;2022-08-02T23:37:16;22.90;72.50
47546;DHT22;50104;52.002;4.688;2022-08-02T23:42:17;22.90;72.40
47546;DHT22;50104;52.002;4.688;2022-08-02T23:47:18;22.80;72.50
47546;DHT22;50104;52.002;4.688;2022-08-02T23:52:19;22.80;72.70
47546;DHT22;50104;52.002;4.688;2022-08-02T23:57:20;22.70;73.00
